sensor_id;sensor_type;location;lat;lon;timestamp;P1;durP1;ratioP1;P2;durP2;ratioP2
47760;SDS011;33524;55.434;38.520;2023-04-24T06:07:11;10.15;;;3.92;;
47760;SDS011;33524;55.434;38.520;2023-04-24T06:09:40;5.55;;;3.03;;
47760;SDS011;33524;55.434;38.520;2023-04-24T06:12:09;6.18;;;3.67;;
47760;SDS011;33524;55.434;38.520;2023-04-24T06:14:38;6.90;;;3.22;;
47760;SDS011;33524;55.434;38.520;2023-04-24T06:17:08;7.50;;;4.00;;
47760;SDS011;33524;55.434;38.520;2023-04-24T06:19:39;4.93;;;3.05;;
47760;SDS011;33524;55.434;38.520;2023-04-24T06:22:08;6.25;;;3.40;;
47760;SDS011;33524;55.434;38.520;2023-04-24T06:24:37;5.05;;;3.10;;
47760;SDS011;33524;55.434;38.520;2023-04-24T06:27:05;8.45;;;3.53;;
47760;SDS011;33524;55.434;38.520;2023-04-24T06:29:35;5.50;;;3.30;;
47760;SDS011;33524;55.434;38.520;2023-04-24T06:32:04;5.53;;;2.37;;
47760;SDS011;33524;55.434;38.520;2023-04-24T06:34:32;6.37;;;2.75;;
47760;SDS011;33524;55.434;38.520;2023-04-24T06:37:01;5.35;;;2.83;;
47760;SDS011;33524;55.434;38.520;2023-04-24T06:39:29;3.87;;;2.62;;
47760;SDS011;33524;55.434;38.520;2023-04-24T06:41:58;4.32;;;2.83;;
47760;SDS011;33524;55.434;38.520;2023-04-24T06:44:26;4.35;;;2.60;;
47760;SDS011;33524;55.434;38.520;2023-04-24T06:46:54;3.95;;;3.12;;
47760;SDS011;33524;55.434;38.520;2023-04-24T06:49:32;6.40;;;2.78;;
47760;SDS011;33524;55.434;38.520;2023-04-24T06:52:00;4.22;;;2.05;;
47760;SDS011;33524;55.434;38.520;2023-04-24T06:54:28;3.72;;;2.67;;
47760;SDS011;33524;55.434;38.520;2023-04-24T06:56:57;4.75;;;2.53;;
47760;SDS011;33524;55.434;38.520;2023-04-24T06:59:28;4.22;;;2.10;;
47760;SDS011;33524;55.434;38.520;2023-04-24T07:01:56;3.42;;;2.75;;
47760;SDS011;33524;55.434;38.520;2023-04-24T07:04:24;6.28;;;3.15;;
47760;SDS011;33524;55.434;38.520;2023-04-24T07:06:53;5.12;;;2.90;;
47760;SDS011;33524;55.434;38.520;2023-04-24T07:09:25;6.35;;;3.00;;
47760;SDS011;33524;55.434;38.520;2023-04-24T07:11:53;4.72;;;2.75;;
47760;SDS011;33524;55.434;38.520;2023-04-24T07:14:23;10.30;;;3.47;;
47760;SDS011;33524;55.434;38.520;2023-04-24T07:16:51;3.62;;;2.65;;
47760;SDS011;33524;55.434;38.520;2023-04-24T07:19:19;4.30;;;2.47;;
47760;SDS011;33524;55.434;38.520;2023-04-24T07:22:00;4.07;;;3.12;;
47760;SDS011;33524;55.434;38.520;2023-04-24T07:24:29;6.62;;;3.87;;
47760;SDS011;33524;55.434;38.520;2023-04-24T07:26:59;4.40;;;2.65;;
47760;SDS011;33524;55.434;38.520;2023-04-24T07:29:31;5.05;;;3.00;;
47760;SDS011;33524;55.434;38.520;2023-04-24T07:31:58;4.80;;;3.00;;
47760;SDS011;33524;55.434;38.520;2023-04-24T07:34:29;5.93;;;3.42;;
47760;SDS011;33524;55.434;38.520;2023-04-24T07:36:58;4.75;;;2.10;;
47760;SDS011;33524;55.434;38.520;2023-04-24T07:39:26;4.10;;;2.20;;
47760;SDS011;33524;55.434;38.520;2023-04-24T07:41:55;3.58;;;2.12;;
47760;SDS011;33524;55.434;38.520;2023-04-24T07:44:23;4.22;;;2.10;;
47760;SDS011;33524;55.434;38.520;2023-04-24T07:46:51;4.37;;;2.33;;
47760;SDS011;33524;55.434;38.520;2023-04-24T07:49:19;4.68;;;2.80;;
47760;SDS011;33524;55.434;38.520;2023-04-24T07:51:48;3.37;;;2.05;;
47760;SDS011;33524;55.434;38.520;2023-04-24T07:54:17;2.15;;;1.65;;
47760;SDS011;33524;55.434;38.520;2023-04-24T07:56:45;3.42;;;2.20;;
47760;SDS011;33524;55.434;38.520;2023-04-24T07:59:13;2.83;;;2.00;;
47760;SDS011;33524;55.434;38.520;2023-04-24T08:01:41;4.25;;;2.28;;
47760;SDS011;33524;55.434;38.520;2023-04-24T08:04:10;3.87;;;2.17;;
47760;SDS011;33524;55.434;38.520;2023-04-24T08:06:38;4.37;;;2.67;;
47760;SDS011;33524;55.434;38.520;2023-04-24T08:09:06;3.90;;;2.12;;
47760;SDS011;33524;55.434;38.520;2023-04-24T08:11:35;3.40;;;2.40;;
47760;SDS011;33524;55.434;38.520;2023-04-24T08:14:03;2.95;;;2.00;;
47760;SDS011;33524;55.434;38.520;2023-04-24T08:16:32;4.57;;;2.60;;
47760;SDS011;33524;55.434;38.520;2023-04-24T08:19:01;4.45;;;2.72;;
47760;SDS011;33524;55.434;38.520;2023-04-24T08:21:41;4.12;;;2.95;;
47760;SDS011;33524;55.434;38.520;2023-04-24T08:24:09;3.83;;;2.50;;
47760;SDS011;33524;55.434;38.520;2023-04-24T08:26:37;4.35;;;2.78;;
47760;SDS011;33524;55.434;38.520;2023-04-24T08:29:05;5.15;;;2.60;;
47760;SDS011;33524;55.434;38.520;2023-04-24T08:31:34;3.72;;;1.87;;
47760;SDS011;33524;55.434;38.520;2023-04-24T08:34:03;3.53;;;2.50;;
47760;SDS011;33524;55.434;38.520;2023-04-24T08:36:31;3.70;;;2.47;;
47760;SDS011;33524;55.434;38.520;2023-04-24T08:39:25;3.30;;;2.53;;
47760;SDS011;33524;55.434;38.520;2023-04-24T08:41:54;6.28;;;2.87;;
47760;SDS011;33524;55.434;38.520;2023-04-24T08:44:23;4.22;;;2.67;;
47760;SDS011;33524;55.434;38.520;2023-04-24T08:46:51;3.90;;;2.00;;
47760;SDS011;33524;55.434;38.520;2023-04-24T08:49:21;2.85;;;2.20;;
47760;SDS011;33524;55.434;38.520;2023-04-24T08:51:53;4.53;;;2.22;;
47760;SDS011;33524;55.434;38.520;2023-04-24T08:54:22;4.85;;;2.97;;
47760;SDS011;33524;55.434;38.520;2023-04-24T08:56:50;3.78;;;2.22;;
47760;SDS011;33524;55.434;38.520;2023-04-24T08:59:27;4.68;;;3.15;;
47760;SDS011;33524;55.434;38.520;2023-04-24T09:01:56;6.50;;;3.72;;
47760;SDS011;33524;55.434;38.520;2023-04-24T09:04:24;4.40;;;3.35;;
47760;SDS011;33524;55.434;38.520;2023-04-24T09:06:55;6.57;;;2.85;;
47760;SDS011;33524;55.434;38.520;2023-04-24T09:09:24;4.80;;;2.80;;
47760;SDS011;33524;55.434;38.520;2023-04-24T09:11:53;4.37;;;2.75;;
47760;SDS011;33524;55.434;38.520;2023-04-24T09:14:23;5.57;;;3.03;;
47760;SDS011;33524;55.434;38.520;2023-04-24T09:16:51;5.65;;;3.40;;
47760;SDS011;33524;55.434;38.520;2023-04-24T09:19:20;4.00;;;2.58;;
47760;SDS011;33524;55.434;38.520;2023-04-24T09:21:49;4.45;;;2.62;;
47760;SDS011;33524;55.434;38.520;2023-04-24T09:24:21;5.22;;;2.70;;
47760;SDS011;33524;55.434;38.520;2023-04-24T09:26:57;3.58;;;2.50;;
47760;SDS011;33524;55.434;38.520;2023-04-24T09:29:27;3.15;;;2.55;;
47760;SDS011;33524;55.434;38.520;2023-04-24T09:31:55;4.65;;;2.60;;
47760;SDS011;33524;55.434;38.520;2023-04-24T09:34:24;4.25;;;2.58;;
47760;SDS011;33524;55.434;38.520;2023-04-24T09:36:53;6.57;;;3.45;;
47760;SDS011;33524;55.434;38.520;2023-04-24T09:39:22;5.25;;;3.30;;
47760;SDS011;33524;55.434;38.520;2023-04-24T09:41:51;5.40;;;3.15;;
47760;SDS011;33524;55.434;38.520;2023-04-24T09:44:22;3.83;;;2.40;;
47760;SDS011;33524;55.434;38.520;2023-04-24T09:46:53;6.35;;;3.45;;
47760;SDS011;33524;55.434;38.520;2023-04-24T09:49:25;5.22;;;2.80;;
47760;SDS011;33524;55.434;38.520;2023-04-24T09:52:02;2.70;;;1.62;;
47760;SDS011;33524;55.434;38.520;2023-04-24T09:54:34;4.25;;;2.83;;
47760;SDS011;33524;55.434;38.520;2023-04-24T09:57:04;3.78;;;2.20;;
47760;SDS011;33524;55.434;38.520;2023-04-24T09:59:35;4.45;;;2.67;;
47760;SDS011;33524;55.434;38.520;2023-04-24T10:02:19;2.97;;;2.35;;
47760;SDS011;33524;55.434;38.520;2023-04-24T10:04:55;5.12;;;2.72;;
47760;SDS011;33524;55.434;38.520;2023-04-24T10:07:32;3.65;;;1.87;;
47760;SDS011;33524;55.434;38.520;2023-04-24T10:10:00;3.53;;;2.15;;
47760;SDS011;33524;55.434;38.520;2023-04-24T10:12:29;3.33;;;2.20;;
47760;SDS011;33524;55.434;38.520;2023-04-24T10:14:58;4.43;;;2.00;;
47760;SDS011;33524;55.434;38.520;2023-04-24T10:17:30;4.25;;;2.15;;
47760;SDS011;33524;55.434;38.520;2023-04-24T10:19:58;3.53;;;2.37;;
47760;SDS011;33524;55.434;38.520;2023-04-24T10:22:30;3.62;;;2.00;;
47760;SDS011;33524;55.434;38.520;2023-04-24T10:24:59;4.90;;;2.70;;
47760;SDS011;33524;55.434;38.520;2023-04-24T10:27:29;5.15;;;2.60;;
47760;SDS011;33524;55.434;38.520;2023-04-24T10:29:58;5.30;;;2.33;;
47760;SDS011;33524;55.434;38.520;2023-04-24T10:32:30;4.25;;;2.83;;
47760;SDS011;33524;55.434;38.520;2023-04-24T10:34:59;3.17;;;2.15;;
47760;SDS011;33524;55.434;38.520;2023-04-24T10:37:28;4.45;;;2.35;;
47760;SDS011;33524;55.434;38.520;2023-04-24T10:40:08;4.45;;;2.53;;
47760;SDS011;33524;55.434;38.520;2023-04-24T10:42:40;3.65;;;2.20;;
47760;SDS011;33524;55.434;38.520;2023-04-24T10:45:16;3.72;;;2.20;;
47760;SDS011;33524;55.434;38.520;2023-04-24T10:47:52;3.22;;;2.33;;
47760;SDS011;33524;55.434;38.520;2023-04-24T10:50:25;6.32;;;2.03;;
47760;SDS011;33524;55.434;38.520;2023-04-24T10:53:04;3.40;;;2.42;;
47760;SDS011;33524;55.434;38.520;2023-04-24T10:56:16;5.05;;;2.47;;
47760;SDS011;33524;55.434;38.520;2023-04-24T10:58:37;7.20;;;3.28;;
47760;SDS011;33524;55.434;38.520;2023-04-24T11:01:08;6.57;;;2.78;;
47760;SDS011;33524;55.434;38.520;2023-04-24T11:03:36;3.53;;;2.53;;
47760;SDS011;33524;55.434;38.520;2023-04-24T11:06:06;4.37;;;2.55;;
47760;SDS011;33524;55.434;38.520;2023-04-24T11:08:42;5.22;;;2.60;;
47760;SDS011;33524;55.434;38.520;2023-04-24T11:11:13;4.15;;;2.30;;
47760;SDS011;33524;55.434;38.520;2023-04-24T11:19:07;7.37;;;2.97;;
47760;SDS011;33524;55.434;38.520;2023-04-24T11:21:43;4.25;;;2.40;;
47760;SDS011;33524;55.434;38.520;2023-04-24T11:25:06;3.10;;;1.75;;
47760;SDS011;33524;55.434;38.520;2023-04-24T11:27:16;3.22;;;2.47;;
47760;SDS011;33524;55.434;38.520;2023-04-24T11:34:56;5.47;;;2.28;;
47760;SDS011;33524;55.434;38.520;2023-04-24T11:37:36;4.40;;;2.30;;
47760;SDS011;33524;55.434;38.520;2023-04-24T11:40:10;7.25;;;2.87;;
47760;SDS011;33524;55.434;38.520;2023-04-24T11:42:40;3.03;;;1.95;;
47760;SDS011;33524;55.434;38.520;2023-04-24T11:45:20;2.62;;;2.00;;
47760;SDS011;33524;55.434;38.520;2023-04-24T11:47:50;3.03;;;2.20;;
47760;SDS011;33524;55.434;38.520;2023-04-24T11:50:20;4.40;;;2.45;;
47760;SDS011;33524;55.434;38.520;2023-04-24T11:52:50;4.68;;;2.58;;
47760;SDS011;33524;55.434;38.520;2023-04-24T11:57:48;4.57;;;2.35;;
47760;SDS011;33524;55.434;38.520;2023-04-24T12:00:21;4.43;;;2.72;;
47760;SDS011;33524;55.434;38.520;2023-04-24T12:03:02;3.28;;;2.15;;
47760;SDS011;33524;55.434;38.520;2023-04-24T12:05:34;6.87;;;2.30;;
47760;SDS011;33524;55.434;38.520;2023-04-24T12:08:03;3.67;;;2.37;;
47760;SDS011;33524;55.434;38.520;2023-04-24T12:10:32;3.33;;;2.10;;
47760;SDS011;33524;55.434;38.520;2023-04-24T12:13:02;6.05;;;3.58;;
47760;SDS011;33524;55.434;38.520;2023-04-24T12:15:30;3.47;;;2.15;;
47760;SDS011;33524;55.434;38.520;2023-04-24T12:17:58;3.80;;;2.25;;
47760;SDS011;33524;55.434;38.520;2023-04-24T12:20:28;5.45;;;2.30;;
47760;SDS011;33524;55.434;38.520;2023-04-24T12:22:59;2.55;;;1.83;;
47760;SDS011;33524;55.434;38.520;2023-04-24T12:25:30;6.68;;;2.30;;
47760;SDS011;33524;55.434;38.520;2023-04-24T12:30:31;3.75;;;2.00;;
47760;SDS011;33524;55.434;38.520;2023-04-24T12:33:08;3.80;;;2.08;;
47760;SDS011;33524;55.434;38.520;2023-04-24T12:35:37;4.80;;;2.72;;
47760;SDS011;33524;55.434;38.520;2023-04-24T12:38:12;5.60;;;2.28;;
47760;SDS011;33524;55.434;38.520;2023-04-24T12:40:42;3.87;;;2.35;;
47760;SDS011;33524;55.434;38.520;2023-04-24T12:43:20;4.82;;;2.25;;
47760;SDS011;33524;55.434;38.520;2023-04-24T12:45:48;4.95;;;2.17;;
47760;SDS011;33524;55.434;38.520;2023-04-24T12:48:16;2.37;;;1.60;;
47760;SDS011;33524;55.434;38.520;2023-04-24T12:50:45;3.75;;;1.95;;
47760;SDS011;33524;55.434;38.520;2023-04-24T12:53:15;4.00;;;2.25;;
47760;SDS011;33524;55.434;38.520;2023-04-24T12:55:43;4.55;;;2.33;;
47760;SDS011;33524;55.434;38.520;2023-04-24T12:58:12;5.90;;;2.40;;
47760;SDS011;33524;55.434;38.520;2023-04-24T13:00:41;3.35;;;2.12;;
47760;SDS011;33524;55.434;38.520;2023-04-24T13:03:11;4.68;;;2.22;;
47760;SDS011;33524;55.434;38.520;2023-04-24T13:05:39;2.75;;;1.85;;
47760;SDS011;33524;55.434;38.520;2023-04-24T13:08:08;3.97;;;2.03;;
47760;SDS011;33524;55.434;38.520;2023-04-24T13:10:36;4.70;;;2.10;;
47760;SDS011;33524;55.434;38.520;2023-04-24T13:13:08;8.00;;;3.35;;
47760;SDS011;33524;55.434;38.520;2023-04-24T13:15:36;5.68;;;3.53;;
47760;SDS011;33524;55.434;38.520;2023-04-24T13:18:04;6.10;;;3.05;;
47760;SDS011;33524;55.434;38.520;2023-04-24T13:20:32;6.10;;;3.33;;
47760;SDS011;33524;55.434;38.520;2023-04-24T13:23:02;7.05;;;3.62;;
47760;SDS011;33524;55.434;38.520;2023-04-24T13:25:34;5.13;;;2.97;;
47760;SDS011;33524;55.434;38.520;2023-04-24T13:28:04;4.80;;;2.10;;
47760;SDS011;33524;55.434;38.520;2023-04-24T13:30:32;2.42;;;1.55;;
47760;SDS011;33524;55.434;38.520;2023-04-24T13:33:01;5.70;;;2.75;;
47760;SDS011;33524;55.434;38.520;2023-04-24T13:35:29;3.05;;;2.25;;
47760;SDS011;33524;55.434;38.520;2023-04-24T13:37:57;7.00;;;2.80;;
47760;SDS011;33524;55.434;38.520;2023-04-24T13:40:29;2.72;;;1.77;;
47760;SDS011;33524;55.434;38.520;2023-04-24T13:42:57;7.40;;;2.60;;
47760;SDS011;33524;55.434;38.520;2023-04-24T13:45:25;3.15;;;2.40;;
47760;SDS011;33524;55.434;38.520;2023-04-24T13:47:54;3.37;;;2.20;;
47760;SDS011;33524;55.434;38.520;2023-04-24T13:50:22;5.82;;;3.15;;
47760;SDS011;33524;55.434;38.520;2023-04-24T13:52:53;5.75;;;3.05;;
47760;SDS011;33524;55.434;38.520;2023-04-24T13:55:22;10.82;;;2.65;;
47760;SDS011;33524;55.434;38.520;2023-04-24T13:57:51;3.60;;;2.62;;
47760;SDS011;33524;55.434;38.520;2023-04-24T14:00:23;3.42;;;2.22;;
47760;SDS011;33524;55.434;38.520;2023-04-24T14:02:51;4.72;;;2.35;;
47760;SDS011;33524;55.434;38.520;2023-04-24T14:05:20;7.62;;;3.40;;
47760;SDS011;33524;55.434;38.520;2023-04-24T14:07:55;6.82;;;2.15;;
47760;SDS011;33524;55.434;38.520;2023-04-24T14:10:23;3.72;;;2.20;;
47760;SDS011;33524;55.434;38.520;2023-04-24T14:12:52;4.45;;;2.55;;
47760;SDS011;33524;55.434;38.520;2023-04-24T14:15:21;3.08;;;2.10;;
47760;SDS011;33524;55.434;38.520;2023-04-24T14:17:49;3.97;;;2.60;;
47760;SDS011;33524;55.434;38.520;2023-04-24T14:20:17;4.57;;;2.60;;
47760;SDS011;33524;55.434;38.520;2023-04-24T14:22:45;4.62;;;2.70;;
47760;SDS011;33524;55.434;38.520;2023-04-24T14:25:14;5.35;;;3.15;;
47760;SDS011;33524;55.434;38.520;2023-04-24T14:27:43;4.32;;;2.70;;
47760;SDS011;33524;55.434;38.520;2023-04-24T14:30:12;6.05;;;2.95;;
47760;SDS011;33524;55.434;38.520;2023-04-24T14:32:41;9.07;;;3.20;;
47760;SDS011;33524;55.434;38.520;2023-04-24T14:35:09;9.95;;;5.30;;
47760;SDS011;33524;55.434;38.520;2023-04-24T14:37:37;13.27;;;6.32;;
47760;SDS011;33524;55.434;38.520;2023-04-24T14:40:09;14.18;;;8.05;;
47760;SDS011;33524;55.434;38.520;2023-04-24T14:42:57;19.35;;;8.23;;
47760;SDS011;33524;55.434;38.520;2023-04-24T14:45:29;15.00;;;10.13;;
47760;SDS011;33524;55.434;38.520;2023-04-24T14:47:58;12.35;;;7.00;;
47760;SDS011;33524;55.434;38.520;2023-04-24T14:50:27;9.88;;;5.93;;
47760;SDS011;33524;55.434;38.520;2023-04-24T14:52:55;8.93;;;4.80;;
47760;SDS011;33524;55.434;38.520;2023-04-24T14:55:25;7.78;;;4.07;;
47760;SDS011;33524;55.434;38.520;2023-04-24T14:57:54;6.47;;;3.75;;
47760;SDS011;33524;55.434;38.520;2023-04-24T15:00:22;6.43;;;3.80;;
47760;SDS011;33524;55.434;38.520;2023-04-24T15:02:54;6.87;;;4.53;;
47760;SDS011;33524;55.434;38.520;2023-04-24T15:05:23;7.30;;;4.57;;
47760;SDS011;33524;55.434;38.520;2023-04-24T15:07:52;4.05;;;3.15;;
47760;SDS011;33524;55.434;38.520;2023-04-24T15:10:21;8.77;;;4.82;;
47760;SDS011;33524;55.434;38.520;2023-04-24T15:12:51;6.50;;;4.00;;
47760;SDS011;33524;55.434;38.520;2023-04-24T15:15:19;9.88;;;4.78;;
47760;SDS011;33524;55.434;38.520;2023-04-24T15:17:47;9.70;;;5.07;;
47760;SDS011;33524;55.434;38.520;2023-04-24T15:20:16;10.10;;;5.40;;
47760;SDS011;33524;55.434;38.520;2023-04-24T15:22:45;10.90;;;5.90;;
47760;SDS011;33524;55.434;38.520;2023-04-24T15:25:13;8.48;;;5.78;;
47760;SDS011;33524;55.434;38.520;2023-04-24T15:27:44;8.60;;;5.25;;
47760;SDS011;33524;55.434;38.520;2023-04-24T15:30:13;8.80;;;5.25;;
47760;SDS011;33524;55.434;38.520;2023-04-24T15:32:42;9.63;;;5.90;;
47760;SDS011;33524;55.434;38.520;2023-04-24T15:35:13;15.82;;;8.80;;
47760;SDS011;33524;55.434;38.520;2023-04-24T15:37:42;17.08;;;10.85;;
47760;SDS011;33524;55.434;38.520;2023-04-24T15:40:10;14.73;;;10.10;;
47760;SDS011;33524;55.434;38.520;2023-04-24T15:42:44;19.50;;;11.57;;
47760;SDS011;33524;55.434;38.520;2023-04-24T15:45:13;14.55;;;8.35;;
47760;SDS011;33524;55.434;38.520;2023-04-24T15:47:41;18.15;;;9.80;;
47760;SDS011;33524;55.434;38.520;2023-04-24T15:50:13;13.62;;;9.50;;
47760;SDS011;33524;55.434;38.520;2023-04-24T15:52:43;17.85;;;10.07;;
47760;SDS011;33524;55.434;38.520;2023-04-24T15:55:12;13.90;;;9.57;;
47760;SDS011;33524;55.434;38.520;2023-04-24T15:57:40;13.75;;;9.88;;
47760;SDS011;33524;55.434;38.520;2023-04-24T16:00:10;12.15;;;9.05;;
47760;SDS011;33524;55.434;38.520;2023-04-24T16:02:39;12.37;;;8.95;;
47760;SDS011;33524;55.434;38.520;2023-04-24T16:05:08;13.20;;;8.30;;
47760;SDS011;33524;55.434;38.520;2023-04-24T16:07:37;12.82;;;8.05;;
47760;SDS011;33524;55.434;38.520;2023-04-24T16:10:07;16.55;;;8.52;;
47760;SDS011;33524;55.434;38.520;2023-04-24T16:12:36;17.85;;;9.52;;
47760;SDS011;33524;55.434;38.520;2023-04-24T16:15:04;14.20;;;8.40;;
47760;SDS011;33524;55.434;38.520;2023-04-24T16:17:34;15.85;;;8.70;;
47760;SDS011;33524;55.434;38.520;2023-04-24T16:20:02;14.98;;;8.20;;
47760;SDS011;33524;55.434;38.520;2023-04-24T16:22:32;17.10;;;8.35;;
47760;SDS011;33524;55.434;38.520;2023-04-24T16:25:00;19.12;;;9.32;;
47760;SDS011;33524;55.434;38.520;2023-04-24T16:27:29;15.18;;;9.10;;
47760;SDS011;33524;55.434;38.520;2023-04-24T16:29:58;16.00;;;9.73;;
47760;SDS011;33524;55.434;38.520;2023-04-24T16:32:27;19.17;;;10.63;;
47760;SDS011;33524;55.434;38.520;2023-04-24T16:34:55;18.80;;;10.02;;
47760;SDS011;33524;55.434;38.520;2023-04-24T16:37:23;17.60;;;10.82;;
47760;SDS011;33524;55.434;38.520;2023-04-24T16:39:51;19.52;;;11.20;;
47760;SDS011;33524;55.434;38.520;2023-04-24T16:42:21;20.92;;;10.88;;
47760;SDS011;33524;55.434;38.520;2023-04-24T16:44:49;29.77;;;13.38;;
47760;SDS011;33524;55.434;38.520;2023-04-24T16:47:18;25.75;;;12.20;;
47760;SDS011;33524;55.434;38.520;2023-04-24T16:49:47;22.83;;;12.32;;
47760;SDS011;33524;55.434;38.520;2023-04-24T16:52:16;26.10;;;11.27;;
47760;SDS011;33524;55.434;38.520;2023-04-24T16:54:44;20.98;;;11.43;;
47760;SDS011;33524;55.434;38.520;2023-04-24T16:57:13;16.85;;;9.77;;
47760;SDS011;33524;55.434;38.520;2023-04-24T16:59:44;14.87;;;9.90;;
47760;SDS011;33524;55.434;38.520;2023-04-24T17:02:12;26.92;;;13.98;;
47760;SDS011;33524;55.434;38.520;2023-04-24T17:04:41;18.70;;;11.45;;
47760;SDS011;33524;55.434;38.520;2023-04-24T17:07:10;24.83;;;13.18;;
47760;SDS011;33524;55.434;38.520;2023-04-24T17:09:38;23.20;;;12.30;;
47760;SDS011;33524;55.434;38.520;2023-04-24T17:12:07;20.48;;;13.32;;
47760;SDS011;33524;55.434;38.520;2023-04-24T17:14:37;24.00;;;13.98;;
47760;SDS011;33524;55.434;38.520;2023-04-24T17:17:06;24.92;;;13.85;;
47760;SDS011;33524;55.434;38.520;2023-04-24T17:19:34;26.95;;;12.18;;
47760;SDS011;33524;55.434;38.520;2023-04-24T17:22:03;33.08;;;11.70;;
47760;SDS011;33524;55.434;38.520;2023-04-24T17:24:32;19.40;;;10.90;;
47760;SDS011;33524;55.434;38.520;2023-04-24T17:27:00;19.08;;;11.00;;
47760;SDS011;33524;55.434;38.520;2023-04-24T17:29:41;17.27;;;10.93;;
47760;SDS011;33524;55.434;38.520;2023-04-24T17:32:10;33.40;;;12.52;;
47760;SDS011;33524;55.434;38.520;2023-04-24T17:34:41;21.48;;;11.63;;
47760;SDS011;33524;55.434;38.520;2023-04-24T17:37:09;19.80;;;10.40;;
47760;SDS011;33524;55.434;38.520;2023-04-24T17:39:37;35.78;;;12.73;;
47760;SDS011;33524;55.434;38.520;2023-04-24T17:42:06;37.72;;;12.73;;
47760;SDS011;33524;55.434;38.520;2023-04-24T17:44:34;32.15;;;13.45;;
47760;SDS011;33524;55.434;38.520;2023-04-24T17:47:02;33.95;;;13.68;;
47760;SDS011;33524;55.434;38.520;2023-04-24T17:49:31;29.58;;;13.70;;
47760;SDS011;33524;55.434;38.520;2023-04-24T17:51:59;35.53;;;14.75;;
47760;SDS011;33524;55.434;38.520;2023-04-24T17:54:27;20.15;;;8.85;;
47760;SDS011;33524;55.434;38.520;2023-04-24T17:56:56;35.00;;;13.95;;
47760;SDS011;33524;55.434;38.520;2023-04-24T17:59:25;37.85;;;14.30;;
47760;SDS011;33524;55.434;38.520;2023-04-24T18:01:53;35.90;;;15.57;;
47760;SDS011;33524;55.434;38.520;2023-04-24T18:04:22;31.62;;;14.45;;
47760;SDS011;33524;55.434;38.520;2023-04-24T18:06:53;38.15;;;15.65;;
47760;SDS011;33524;55.434;38.520;2023-04-24T18:09:21;39.88;;;14.60;;
47760;SDS011;33524;55.434;38.520;2023-04-24T18:11:50;28.02;;;13.57;;
47760;SDS011;33524;55.434;38.520;2023-04-24T18:14:18;28.30;;;13.95;;
47760;SDS011;33524;55.434;38.520;2023-04-24T18:16:46;21.98;;;13.10;;
47760;SDS011;33524;55.434;38.520;2023-04-24T18:21:49;25.23;;;11.55;;
47760;SDS011;33524;55.434;38.520;2023-04-24T18:24:18;37.13;;;14.05;;
47760;SDS011;33524;55.434;38.520;2023-04-24T18:26:48;23.90;;;9.77;;
47760;SDS011;33524;55.434;38.520;2023-04-24T18:29:17;16.75;;;9.77;;
47760;SDS011;33524;55.434;38.520;2023-04-24T18:31:45;14.25;;;7.30;;
47760;SDS011;33524;55.434;38.520;2023-04-24T18:34:14;13.13;;;8.30;;
47760;SDS011;33524;55.434;38.520;2023-04-24T18:36:42;15.55;;;7.68;;
47760;SDS011;33524;55.434;38.520;2023-04-24T18:39:11;13.73;;;8.20;;
47760;SDS011;33524;55.434;38.520;2023-04-24T18:41:40;12.02;;;7.68;;
47760;SDS011;33524;55.434;38.520;2023-04-24T18:44:09;14.77;;;7.70;;
47760;SDS011;33524;55.434;38.520;2023-04-24T18:46:38;9.95;;;7.22;;
47760;SDS011;33524;55.434;38.520;2023-04-24T18:49:08;11.27;;;6.53;;
47760;SDS011;33524;55.434;38.520;2023-04-24T18:51:36;11.57;;;6.45;;
47760;SDS011;33524;55.434;38.520;2023-04-24T18:54:20;12.23;;;6.80;;
47760;SDS011;33524;55.434;38.520;2023-04-24T18:56:48;10.90;;;5.93;;
47760;SDS011;33524;55.434;38.520;2023-04-24T18:59:19;13.93;;;5.97;;
47760;SDS011;33524;55.434;38.520;2023-04-24T19:01:48;10.00;;;6.00;;
47760;SDS011;33524;55.434;38.520;2023-04-24T19:04:16;7.28;;;5.15;;
47760;SDS011;33524;55.434;38.520;2023-04-24T19:06:47;8.15;;;6.00;;
47760;SDS011;33524;55.434;38.520;2023-04-24T19:09:15;13.98;;;6.50;;
47760;SDS011;33524;55.434;38.520;2023-04-24T19:11:44;13.27;;;5.90;;
47760;SDS011;33524;55.434;38.520;2023-04-24T19:14:12;11.52;;;6.75;;
47760;SDS011;33524;55.434;38.520;2023-04-24T19:16:42;11.25;;;7.12;;
47760;SDS011;33524;55.434;38.520;2023-04-24T19:19:11;11.15;;;7.40;;
47760;SDS011;33524;55.434;38.520;2023-04-24T19:21:39;12.70;;;7.55;;
47760;SDS011;33524;55.434;38.520;2023-04-24T19:24:08;13.62;;;7.72;;
47760;SDS011;33524;55.434;38.520;2023-04-24T19:26:37;12.32;;;7.70;;
47760;SDS011;33524;55.434;38.520;2023-04-24T19:29:06;14.43;;;7.47;;
47760;SDS011;33524;55.434;38.520;2023-04-24T19:31:34;14.35;;;7.05;;
47760;SDS011;33524;55.434;38.520;2023-04-24T19:34:03;18.00;;;8.05;;
47760;SDS011;33524;55.434;38.520;2023-04-24T19:36:31;9.18;;;6.37;;
47760;SDS011;33524;55.434;38.520;2023-04-24T19:39:00;11.15;;;7.20;;
47760;SDS011;33524;55.434;38.520;2023-04-24T19:41:28;19.20;;;7.15;;
47760;SDS011;33524;55.434;38.520;2023-04-24T19:43:57;13.60;;;6.20;;
47760;SDS011;33524;55.434;38.520;2023-04-24T19:46:25;14.25;;;7.03;;
47760;SDS011;33524;55.434;38.520;2023-04-24T19:48:53;12.68;;;6.65;;
47760;SDS011;33524;55.434;38.520;2023-04-24T19:51:22;23.58;;;7.68;;
47760;SDS011;33524;55.434;38.520;2023-04-24T19:53:50;12.05;;;7.00;;
47760;SDS011;33524;55.434;38.520;2023-04-24T19:56:18;17.98;;;7.22;;
47760;SDS011;33524;55.434;38.520;2023-04-24T19:58:47;11.80;;;5.28;;
47760;SDS011;33524;55.434;38.520;2023-04-24T20:01:16;6.82;;;4.90;;
47760;SDS011;33524;55.434;38.520;2023-04-24T20:03:44;8.13;;;5.68;;
47760;SDS011;33524;55.434;38.520;2023-04-24T20:06:13;14.27;;;7.00;;
47760;SDS011;33524;55.434;38.520;2023-04-24T20:08:41;11.80;;;5.50;;
47760;SDS011;33524;55.434;38.520;2023-04-24T20:11:10;9.50;;;7.20;;
47760;SDS011;33524;55.434;38.520;2023-04-24T20:13:38;11.23;;;6.80;;
47760;SDS011;33524;55.434;38.520;2023-04-24T20:16:06;16.12;;;7.85;;
47760;SDS011;33524;55.434;38.520;2023-04-24T20:18:37;11.27;;;7.45;;
47760;SDS011;33524;55.434;38.520;2023-04-24T20:21:05;15.45;;;7.55;;
47760;SDS011;33524;55.434;38.520;2023-04-24T20:23:35;10.00;;;6.82;;
47760;SDS011;33524;55.434;38.520;2023-04-24T20:26:03;11.00;;;7.90;;
47760;SDS011;33524;55.434;38.520;2023-04-24T20:28:31;13.62;;;7.28;;
47760;SDS011;33524;55.434;38.520;2023-04-24T20:30:59;16.42;;;7.47;;
47760;SDS011;33524;55.434;38.520;2023-04-24T20:33:28;11.35;;;6.32;;
47760;SDS011;33524;55.434;38.520;2023-04-24T20:35:57;8.02;;;5.25;;
47760;SDS011;33524;55.434;38.520;2023-04-24T20:38:25;11.18;;;6.40;;
47760;SDS011;33524;55.434;38.520;2023-04-24T20:40:53;8.90;;;6.62;;
47760;SDS011;33524;55.434;38.520;2023-04-24T20:43:24;13.27;;;8.30;;
47760;SDS011;33524;55.434;38.520;2023-04-24T20:45:56;10.90;;;6.45;;
47760;SDS011;33524;55.434;38.520;2023-04-24T20:48:25;13.68;;;6.70;;
47760;SDS011;33524;55.434;38.520;2023-04-24T20:50:53;13.62;;;6.82;;
47760;SDS011;33524;55.434;38.520;2023-04-24T20:53:22;11.45;;;6.70;;
47760;SDS011;33524;55.434;38.520;2023-04-24T20:55:51;13.48;;;6.45;;
47760;SDS011;33524;55.434;38.520;2023-04-24T20:58:19;11.40;;;6.20;;
47760;SDS011;33524;55.434;38.520;2023-04-24T21:00:51;10.75;;;6.30;;
47760;SDS011;33524;55.434;38.520;2023-04-24T21:03:28;9.30;;;6.03;;
47760;SDS011;33524;55.434;38.520;2023-04-24T21:05:57;12.90;;;6.37;;
47760;SDS011;33524;55.434;38.520;2023-04-24T21:08:25;13.25;;;5.82;;